createdAt,value
2023-05-05T00:00:36.276Z,47.95
2023-05-05T00:01:36.332Z,49.19
2023-05-05T00:02:36.388Z,48.40
2023-05-05T00:03:36.372Z,48.40
2023-05-05T00:04:36.304Z,48.19
2023-05-05T00:05:36.282Z,48.15
2023-05-05T00:06:36.451Z,49.08
2023-05-05T00:07:36.242Z,48.39
2023-05-05T00:08:36.263Z,47.57
2023-05-05T00:09:36.243Z,47.42
2023-05-05T00:10:36.309Z,47.41
2023-05-05T00:11:36.243Z,49.13
2023-05-05T00:12:37.205Z,48.12
2023-05-05T00:13:36.243Z,48.34
2023-05-05T00:14:36.225Z,49.00
2023-05-05T00:15:36.195Z,48.05
2023-05-05T00:16:36.232Z,50.35
2023-05-05T00:17:36.178Z,49.32
2023-05-05T00:18:36.185Z,47.80
2023-05-05T00:19:36.167Z,47.60
2023-05-05T00:20:36.166Z,47.78
2023-05-05T00:21:36.134Z,47.82
2023-05-05T00:22:36.163Z,47.32
2023-05-05T00:23:36.129Z,48.04
2023-05-05T00:24:36.114Z,47.67
2023-05-05T00:25:36.137Z,47.58
2023-05-05T00:26:36.146Z,47.15
2023-05-05T00:27:36.746Z,47.05
2023-05-05T00:28:36.116Z,46.77
2023-05-05T00:29:36.123Z,46.98
2023-05-05T00:30:36.101Z,47.59
2023-05-05T00:31:36.094Z,48.25
2023-05-05T00:32:36.117Z,48.84
2023-05-05T00:33:36.099Z,47.33
2023-05-05T00:34:36.091Z,47.38
2023-05-05T00:35:36.064Z,47.05
2023-05-05T00:36:36.069Z,46.80
2023-05-05T00:37:36.040Z,46.94
2023-05-05T00:38:36.059Z,47.83
2023-05-05T00:39:36.029Z,46.94
2023-05-05T00:40:36.019Z,46.92
2023-05-05T00:41:35.998Z,46.83
2023-05-05T00:42:36.010Z,46.90
2023-05-05T00:43:36.058Z,46.92
2023-05-05T00:44:35.985Z,47.08
2023-05-05T00:45:35.985Z,46.76
2023-05-05T00:46:36.013Z,46.80
2023-05-05T00:47:36.000Z,46.91
2023-05-05T00:48:35.979Z,47.81
2023-05-05T00:49:36.063Z,46.86
2023-05-05T00:50:35.957Z,47.02
2023-05-05T00:51:35.983Z,47.84
2023-05-05T00:52:35.954Z,47.56
2023-05-05T00:53:35.968Z,47.51
2023-05-05T00:54:35.933Z,47.77
2023-05-05T00:55:35.947Z,47.81
2023-05-05T00:56:35.963Z,47.62
2023-05-05T00:57:35.928Z,47.76
2023-05-05T00:58:35.896Z,47.98
2023-05-05T00:59:35.954Z,48.03
2023-05-05T01:00:35.916Z,47.23
2023-05-05T01:01:35.918Z,47.08
2023-05-05T01:02:35.926Z,47.00
2023-05-05T01:03:36.039Z,46.91
2023-05-05T01:04:36.690Z,47.72
2023-05-05T01:05:35.872Z,47.05
2023-05-05T01:06:35.860Z,47.04
2023-05-05T01:07:35.964Z,47.40
2023-05-05T01:08:35.854Z,47.72
2023-05-05T01:09:35.838Z,48.02
2023-05-05T01:10:35.828Z,47.72
2023-05-05T01:11:35.837Z,48.25
2023-05-05T01:12:35.871Z,48.52
2023-05-05T01:13:35.829Z,47.36
2023-05-05T01:14:35.809Z,47.19
2023-05-05T01:15:35.799Z,46.93
2023-05-05T01:16:35.915Z,46.57
2023-05-05T01:17:35.865Z,46.58
2023-05-05T01:18:35.810Z,46.68
2023-05-05T01:19:35.773Z,48.32
2023-05-05T01:20:35.796Z,47.76
2023-05-05T01:21:35.804Z,47.58
2023-05-05T01:22:35.770Z,47.75
2023-05-05T01:23:35.751Z,46.85
2023-05-05T01:24:35.752Z,47.06
2023-05-05T01:25:35.731Z,46.91
2023-05-05T01:26:35.836Z,48.75
2023-05-05T01:27:35.718Z,47.92
2023-05-05T01:28:35.758Z,50.40
2023-05-05T01:29:35.716Z,47.77
2023-05-05T01:30:35.718Z,47.40
2023-05-05T01:31:35.784Z,48.57
2023-05-05T01:32:35.775Z,49.51
2023-05-05T01:33:35.696Z,49.64
2023-05-05T01:34:35.689Z,49.04
2023-05-05T01:35:35.678Z,47.12
2023-05-05T01:36:35.692Z,46.86
2023-05-05T01:37:35.660Z,46.75
2023-05-05T01:38:35.653Z,47.03
2023-05-05T01:39:35.697Z,47.40
2023-05-05T01:40:36.647Z,46.88
2023-05-05T01:41:35.666Z,46.89
2023-05-05T01:42:35.677Z,50.05
2023-05-05T01:43:35.667Z,47.94
2023-05-05T01:44:35.625Z,48.09
2023-05-05T01:45:35.658Z,48.19
2023-05-05T01:46:35.640Z,48.70
2023-05-05T01:47:35.635Z,47.18
2023-05-05T01:48:35.657Z,48.47
2023-05-05T01:49:35.603Z,48.72
2023-05-05T01:50:35.655Z,47.47
2023-05-05T01:51:35.599Z,48.88
2023-05-05T01:52:35.673Z,47.40
2023-05-05T01:53:36.589Z,47.96
2023-05-05T01:54:35.558Z,48.68
2023-05-05T01:55:35.575Z,47.59
2023-05-05T01:56:35.577Z,47.60
2023-05-05T01:57:35.542Z,47.60
2023-05-05T01:58:36.552Z,48.80
2023-05-05T01:59:35.527Z,48.68
2023-05-05T02:00:35.532Z,47.55
2023-05-05T02:01:35.610Z,47.90
2023-05-05T02:02:35.563Z,47.28
2023-05-05T02:03:35.579Z,48.52
2023-05-05T02:04:35.532Z,48.23
2023-05-05T02:05:35.504Z,47.79
2023-05-05T02:06:35.482Z,47.27
2023-05-05T02:07:35.508Z,48.59
2023-05-05T02:08:35.499Z,51.32
2023-05-05T02:09:35.477Z,50.22
2023-05-05T02:10:35.489Z,52.25
2023-05-05T02:11:35.499Z,49.01
2023-05-05T02:12:35.530Z,48.34
2023-05-05T02:13:35.474Z,51.10
2023-05-05T02:14:35.448Z,47.63
2023-05-05T02:15:35.466Z,48.04
2023-05-05T02:16:35.433Z,50.49
2023-05-05T02:17:35.507Z,48.22
2023-05-05T02:18:35.436Z,47.37
2023-05-05T02:19:35.412Z,48.41
2023-05-05T02:20:36.439Z,48.03
2023-05-05T02:21:35.406Z,49.11
2023-05-05T02:22:35.426Z,47.70
2023-05-05T02:23:35.440Z,47.97
2023-05-05T02:24:35.390Z,47.25
2023-05-05T02:25:35.380Z,49.19
2023-05-05T02:26:35.387Z,47.63
2023-05-05T02:27:35.353Z,48.18
2023-05-05T02:28:35.399Z,47.26
2023-05-05T02:29:35.373Z,48.25
2023-05-05T02:30:35.329Z,48.56
2023-05-05T02:31:35.361Z,47.79
2023-05-05T02:32:35.389Z,47.82
2023-05-05T02:33:35.333Z,49.50
2023-05-05T02:34:35.361Z,48.03
2023-05-05T02:35:35.345Z,48.15
2023-05-05T02:36:35.298Z,48.29
2023-05-05T02:37:35.289Z,49.30
2023-05-05T02:38:35.302Z,47.55
2023-05-05T02:39:35.306Z,48.97
2023-05-05T02:40:35.280Z,50.41
2023-05-05T02:41:35.284Z,51.34
2023-05-05T02:42:35.311Z,50.70
2023-05-05T02:43:35.285Z,51.44
2023-05-05T02:44:35.285Z,48.39
2023-05-05T02:45:35.281Z,48.55
2023-05-05T02:46:35.283Z,49.11
2023-05-05T02:47:35.296Z,48.62
2023-05-05T02:48:35.266Z,49.59
2023-05-05T02:49:35.257Z,49.51
2023-05-05T02:50:35.291Z,49.47
2023-05-05T02:51:35.233Z,49.40
2023-05-05T02:52:35.264Z,49.84
2023-05-05T02:53:35.207Z,49.56
2023-05-05T02:54:35.209Z,49.98
2023-05-05T02:55:35.229Z,49.59
2023-05-05T02:56:35.211Z,49.96
2023-05-05T02:57:35.226Z,51.15
2023-05-05T02:58:35.210Z,51.52
2023-05-05T02:59:35.177Z,51.24
2023-05-05T03:00:35.168Z,50.26
2023-05-05T03:01:35.201Z,50.71
2023-05-05T03:02:35.267Z,52.28
2023-05-05T03:03:35.195Z,52.48
2023-05-05T03:04:35.166Z,52.12
2023-05-05T03:05:35.156Z,52.23
2023-05-05T03:06:35.137Z,51.27
2023-05-05T03:07:35.181Z,50.43
2023-05-05T03:08:35.128Z,50.82
2023-05-05T03:09:35.122Z,54.55
2023-05-05T03:10:35.110Z,53.62
2023-05-05T03:11:35.117Z,52.54
2023-05-05T03:12:35.143Z,51.54
2023-05-05T03:13:35.110Z,52.21
2023-05-05T03:14:35.088Z,51.61
2023-05-05T03:15:35.075Z,57.70
2023-05-05T03:16:35.150Z,57.75
2023-05-05T03:17:35.110Z,57.81
2023-05-05T03:18:35.076Z,58.41
2023-05-05T03:19:35.083Z,58.30
2023-05-05T03:20:35.051Z,58.47
2023-05-05T03:21:35.053Z,58.75
2023-05-05T03:22:35.040Z,58.73
2023-05-05T03:23:35.039Z,57.18
2023-05-05T03:24:35.052Z,51.43
2023-05-05T03:25:35.032Z,50.87
2023-05-05T03:26:35.095Z,51.77
2023-05-05T03:27:35.021Z,53.00
2023-05-05T03:28:35.014Z,52.35
2023-05-05T03:29:34.993Z,52.72
2023-05-05T03:30:35.030Z,53.66
2023-05-05T03:31:35.011Z,53.02
2023-05-05T03:32:35.014Z,53.26
2023-05-05T03:33:34.961Z,54.11
2023-05-05T03:34:35.012Z,53.58
2023-05-05T03:35:34.963Z,53.11
2023-05-05T03:36:34.998Z,52.31
2023-05-05T03:37:34.992Z,52.27
2023-05-05T03:38:34.947Z,53.75
2023-05-05T03:39:34.936Z,52.86
2023-05-05T03:40:43.679Z,52.64
2023-05-05T03:41:36.915Z,53.00
2023-05-05T03:42:34.957Z,51.86
2023-05-05T03:43:34.938Z,51.05
2023-05-05T03:44:34.928Z,53.32
2023-05-05T03:45:34.934Z,51.27
2023-05-05T03:46:34.935Z,52.20
2023-05-05T03:47:34.925Z,52.19
2023-05-05T03:48:34.869Z,52.82
2023-05-05T03:49:34.876Z,52.58
2023-05-05T03:50:34.880Z,50.95
2023-05-05T03:51:34.903Z,51.92
2023-05-05T03:52:34.881Z,50.89
2023-05-05T03:53:34.868Z,51.78
2023-05-05T03:54:34.856Z,50.52
2023-05-05T03:55:34.831Z,53.27
2023-05-05T03:56:34.832Z,55.09
2023-05-05T03:57:34.871Z,51.52
2023-05-05T03:58:34.865Z,53.34
2023-05-05T03:59:34.867Z,51.61
2023-05-05T04:00:34.842Z,51.28
2023-05-05T04:01:34.793Z,52.29
2023-05-05T04:02:34.883Z,53.96
2023-05-05T04:03:34.871Z,54.37
2023-05-05T04:04:34.898Z,53.01
2023-05-05T04:05:35.770Z,52.50
2023-05-05T04:06:34.769Z,54.20
2023-05-05T04:07:34.763Z,52.80
2023-05-05T04:08:34.761Z,54.41
2023-05-05T04:09:34.787Z,53.06
2023-05-05T04:10:34.759Z,52.88
2023-05-05T04:11:35.741Z,52.61
2023-05-05T04:12:34.754Z,52.27
2023-05-05T04:13:34.751Z,53.54
2023-05-05T04:14:34.743Z,53.23
2023-05-05T04:15:34.818Z,53.06
2023-05-05T04:16:34.719Z,53.65
2023-05-05T04:17:34.734Z,56.36
2023-05-05T04:18:34.854Z,54.85
2023-05-05T04:19:34.717Z,53.23
2023-05-05T04:20:34.661Z,54.50
2023-05-05T04:21:34.672Z,53.88
2023-05-05T04:22:34.709Z,53.02
2023-05-05T04:23:34.683Z,54.50
2023-05-05T04:24:34.681Z,54.15
2023-05-05T04:25:34.681Z,52.96
2023-05-05T04:26:34.712Z,52.78
2023-05-05T04:27:34.674Z,53.10
2023-05-05T04:28:34.630Z,52.82
2023-05-05T04:29:34.641Z,54.57
2023-05-05T04:30:34.681Z,54.67
2023-05-05T04:31:34.680Z,55.11
2023-05-05T04:32:34.630Z,55.40
2023-05-05T04:33:34.587Z,53.98
2023-05-05T04:34:34.604Z,55.36
2023-05-05T04:35:34.622Z,54.96
2023-05-05T04:36:34.629Z,52.84
2023-05-05T04:37:34.593Z,53.76
2023-05-05T04:38:34.608Z,53.10
2023-05-05T04:39:34.574Z,53.89
2023-05-05T04:40:34.582Z,52.59
2023-05-05T04:41:34.550Z,54.13
2023-05-05T04:42:34.552Z,55.63
2023-05-05T04:43:34.535Z,54.70
2023-05-05T04:44:34.552Z,53.83
2023-05-05T04:45:34.653Z,53.63
2023-05-05T04:46:34.590Z,54.75
2023-05-05T04:47:34.540Z,53.12
2023-05-05T04:48:34.553Z,53.79
2023-05-05T04:49:34.483Z,54.19
2023-05-05T04:50:35.502Z,54.87
2023-05-05T04:51:34.509Z,55.74
2023-05-05T04:52:34.498Z,54.01
2023-05-05T04:53:34.570Z,54.29
2023-05-05T04:54:34.461Z,53.34
2023-05-05T04:55:34.467Z,50.85
2023-05-05T04:56:34.457Z,52.29
2023-05-05T04:57:34.587Z,53.95
2023-05-05T04:58:34.437Z,56.57
2023-05-05T04:59:34.434Z,53.89
2023-05-05T05:00:34.439Z,55.17
2023-05-05T05:01:36.902Z,55.67
2023-05-05T05:02:34.469Z,58.44
2023-05-05T05:03:34.505Z,58.88
2023-05-05T05:04:34.384Z,58.42
2023-05-05T05:05:34.432Z,56.53
2023-05-05T05:06:34.399Z,54.72
2023-05-05T05:07:34.385Z,55.27
2023-05-05T05:08:34.402Z,54.54
2023-05-05T05:09:34.370Z,55.39
2023-05-05T05:10:34.350Z,56.66
2023-05-05T05:11:34.347Z,55.24
2023-05-05T05:12:34.374Z,56.39
2023-05-05T05:13:34.337Z,56.15
2023-05-05T05:14:34.306Z,54.25
2023-05-05T05:15:34.327Z,55.75
2023-05-05T05:16:34.345Z,55.95
2023-05-05T05:17:34.405Z,52.99
2023-05-05T05:18:34.324Z,53.43
2023-05-05T05:19:34.272Z,54.31
2023-05-05T05:20:34.323Z,56.00
2023-05-05T05:21:34.258Z,52.62
2023-05-05T05:22:34.253Z,53.09
2023-05-05T05:23:34.264Z,50.97
2023-05-05T05:24:34.241Z,53.07
2023-05-05T05:25:34.252Z,50.76
2023-05-05T05:26:34.342Z,52.90
2023-05-05T05:27:34.294Z,51.24
2023-05-05T05:28:34.256Z,51.92
2023-05-05T05:29:34.198Z,53.13
2023-05-05T05:30:34.211Z,52.84
2023-05-05T05:31:34.467Z,52.95
2023-05-05T05:32:34.194Z,53.54
2023-05-05T05:33:34.164Z,51.13
2023-05-05T05:34:34.192Z,50.52
2023-05-05T05:35:34.175Z,53.35
2023-05-05T05:36:34.176Z,54.39
2023-05-05T05:37:34.142Z,51.18
2023-05-05T05:38:34.168Z,53.34
2023-05-05T05:39:34.167Z,53.92
2023-05-05T05:40:34.122Z,53.18
2023-05-05T05:41:35.116Z,53.49
2023-05-05T05:42:34.123Z,52.79
2023-05-05T05:43:34.110Z,53.67
2023-05-05T05:44:34.105Z,51.95
2023-05-05T05:45:34.085Z,52.43
2023-05-05T05:46:34.184Z,51.16
2023-05-05T05:47:34.103Z,52.56
2023-05-05T05:48:34.063Z,52.39
2023-05-05T05:49:34.075Z,52.97
2023-05-05T05:50:34.079Z,54.42
2023-05-05T05:51:34.074Z,52.95
2023-05-05T05:52:34.024Z,53.15
2023-05-05T05:53:34.041Z,52.66
2023-05-05T05:54:34.047Z,52.27
2023-05-05T05:55:33.998Z,52.87
2023-05-05T05:56:34.032Z,52.14
2023-05-05T05:57:34.010Z,51.96
2023-05-05T05:58:33.987Z,53.22
2023-05-05T05:59:33.996Z,52.40
2023-05-05T06:00:34.022Z,53.33
2023-05-05T06:01:34.026Z,53.07
2023-05-05T06:02:34.012Z,53.67
2023-05-05T06:03:34.112Z,54.26
2023-05-05T06:04:34.009Z,54.45
2023-05-05T06:05:33.938Z,51.00
2023-05-05T06:06:34.053Z,53.39
2023-05-05T06:07:33.899Z,52.07
2023-05-05T06:08:33.907Z,53.10
2023-05-05T06:09:33.943Z,50.26
2023-05-05T06:10:34.265Z,53.27
2023-05-05T06:11:33.876Z,52.22
2023-05-05T06:12:33.886Z,53.32
2023-05-05T06:13:33.883Z,52.89
2023-05-05T06:14:33.876Z,54.59
2023-05-05T06:15:33.877Z,53.36
2023-05-05T06:16:33.894Z,52.48
2023-05-05T06:17:33.863Z,54.69
2023-05-05T06:18:33.849Z,53.97
2023-05-05T06:19:33.836Z,53.95
2023-05-05T06:20:33.794Z,53.57
2023-05-05T06:21:33.809Z,52.84
2023-05-05T06:22:33.913Z,52.37
2023-05-05T06:23:33.805Z,53.11
2023-05-05T06:24:33.775Z,54.12
2023-05-05T06:25:33.819Z,53.80
2023-05-05T06:26:33.770Z,53.34
2023-05-05T06:27:33.785Z,56.11
2023-05-05T06:28:33.808Z,55.67
2023-05-05T06:29:33.768Z,57.31
2023-05-05T06:30:33.796Z,55.64
2023-05-05T06:31:33.779Z,53.35
2023-05-05T06:32:33.845Z,53.80
2023-05-05T06:33:33.906Z,50.66
2023-05-05T06:34:33.781Z,50.98
2023-05-05T06:35:33.741Z,53.14
2023-05-05T06:36:33.757Z,53.89
2023-05-05T06:37:33.714Z,53.30
2023-05-05T06:38:33.735Z,50.03
2023-05-05T06:39:33.697Z,53.76
2023-05-05T06:40:33.712Z,55.41
2023-05-05T06:41:33.709Z,51.52
2023-05-05T06:42:33.706Z,53.66
2023-05-05T06:43:33.649Z,55.71
2023-05-05T06:44:33.649Z,55.06
2023-05-05T06:45:33.794Z,55.76
2023-05-05T06:46:33.616Z,54.81
2023-05-05T06:47:33.630Z,53.74
2023-05-05T06:48:33.642Z,51.25
2023-05-05T06:49:33.743Z,51.60
2023-05-05T06:50:33.605Z,51.02
2023-05-05T06:51:33.594Z,53.37
2023-05-05T06:52:33.586Z,53.45
2023-05-05T06:53:33.593Z,53.00
2023-05-05T06:54:33.601Z,52.88
2023-05-05T06:55:33.594Z,50.69
2023-05-05T06:56:33.546Z,51.46
2023-05-05T06:57:33.574Z,51.01
2023-05-05T06:58:33.538Z,49.04
2023-05-05T06:59:33.551Z,52.50
2023-05-05T07:00:33.636Z,51.95
2023-05-05T07:01:33.511Z,53.19
2023-05-05T07:02:33.570Z,50.33
2023-05-05T07:03:33.600Z,51.14
2023-05-05T07:04:33.511Z,50.98
2023-05-05T07:05:33.495Z,51.32
2023-05-05T07:06:33.562Z,49.47
2023-05-05T07:07:33.549Z,52.83
2023-05-05T07:08:33.496Z,48.70
2023-05-05T07:09:33.483Z,53.84
2023-05-05T07:10:33.581Z,51.08
2023-05-05T07:11:33.604Z,54.13
2023-05-05T07:12:33.509Z,53.26
2023-05-05T07:13:33.500Z,52.70
2023-05-05T07:14:33.461Z,51.65
2023-05-05T07:15:33.504Z,50.47
2023-05-05T07:16:33.511Z,50.01
2023-05-05T07:17:34.512Z,54.75
2023-05-05T07:18:33.514Z,52.46
2023-05-05T07:19:33.636Z,52.39
2023-05-05T07:20:33.427Z,51.35
2023-05-05T07:21:33.389Z,53.56
2023-05-05T07:22:33.407Z,52.54
2023-05-05T07:23:33.360Z,54.69
2023-05-05T07:24:33.385Z,54.42
2023-05-05T07:25:33.365Z,52.99
2023-05-05T07:26:33.439Z,54.61
2023-05-05T07:27:33.394Z,52.56
2023-05-05T07:28:33.385Z,50.98
2023-05-05T07:29:33.399Z,53.71
2023-05-05T07:30:33.373Z,54.15
2023-05-05T07:31:33.336Z,51.58
2023-05-05T07:32:33.366Z,49.92
2023-05-05T07:33:33.348Z,51.87
2023-05-05T07:34:33.340Z,51.20
2023-05-05T07:35:33.343Z,51.23
2023-05-05T07:36:33.319Z,51.44
2023-05-05T07:37:33.277Z,53.39
2023-05-05T07:38:33.321Z,52.50
2023-05-05T07:39:33.332Z,51.03
2023-05-05T07:40:33.258Z,54.10
2023-05-05T07:41:33.259Z,50.05
2023-05-05T07:42:33.350Z,54.94
2023-05-05T07:43:33.245Z,54.48
2023-05-05T07:44:33.280Z,51.09
2023-05-05T07:45:33.242Z,51.75
2023-05-05T07:46:33.314Z,51.98
2023-05-05T07:47:33.276Z,53.84
2023-05-05T07:48:33.222Z,52.49
2023-05-05T07:49:33.232Z,52.43
2023-05-05T07:50:33.198Z,54.61
2023-05-05T07:51:34.605Z,51.00
2023-05-05T07:52:44.921Z,49.07
2023-05-05T07:53:35.167Z,51.74
2023-05-05T07:54:33.186Z,51.71
2023-05-05T07:55:33.197Z,53.39
2023-05-05T07:56:33.198Z,52.15
2023-05-05T07:57:33.186Z,53.69
2023-05-05T07:58:33.237Z,54.12
2023-05-05T07:59:33.168Z,54.33
2023-05-05T08:00:33.133Z,53.16
2023-05-05T08:01:33.171Z,52.65
2023-05-05T08:02:33.191Z,53.18
2023-05-05T08:03:33.335Z,52.87
2023-05-05T08:04:33.199Z,50.87
2023-05-05T08:05:33.100Z,49.06
2023-05-05T08:06:33.110Z,52.12
2023-05-05T08:07:33.080Z,53.24
2023-05-05T08:08:33.132Z,52.75
2023-05-05T08:09:33.080Z,52.82
2023-05-05T08:10:33.062Z,52.37
2023-05-05T08:11:33.103Z,50.80
2023-05-05T08:12:33.096Z,52.85
2023-05-05T08:13:33.099Z,49.87
2023-05-05T08:14:33.132Z,51.98
2023-05-05T08:15:33.070Z,53.95
2023-05-05T08:16:33.110Z,49.18
2023-05-05T08:17:33.151Z,49.28
2023-05-05T08:18:33.067Z,51.38
2023-05-05T08:19:33.026Z,50.23
2023-05-05T08:20:33.037Z,54.54
2023-05-05T08:21:33.029Z,53.46
2023-05-05T08:22:33.027Z,54.75
2023-05-05T08:23:32.988Z,53.27
2023-05-05T08:24:33.063Z,54.62
2023-05-05T08:25:32.991Z,52.17
2023-05-05T08:26:32.976Z,48.70
2023-05-05T08:27:32.991Z,50.95
2023-05-05T08:28:32.955Z,48.77
2023-05-05T08:29:32.955Z,51.06
2023-05-05T08:30:33.019Z,52.37
2023-05-05T08:31:32.972Z,51.59
2023-05-05T08:32:32.992Z,54.25
2023-05-05T08:33:32.958Z,51.03
2023-05-05T08:34:32.978Z,51.85
2023-05-05T08:35:32.945Z,51.06
2023-05-05T08:36:32.965Z,52.24
2023-05-05T08:37:32.917Z,53.97
2023-05-05T08:38:32.956Z,49.41
2023-05-05T08:39:32.925Z,51.28
2023-05-05T08:40:32.917Z,52.31
2023-05-05T08:41:32.888Z,51.34
2023-05-05T08:42:38.726Z,52.41
2023-05-05T08:43:35.013Z,50.20
2023-05-05T08:44:32.894Z,48.49
2023-05-05T08:45:32.877Z,52.37
2023-05-05T08:46:32.909Z,51.35
2023-05-05T08:47:32.934Z,52.12
2023-05-05T08:48:32.886Z,50.27
2023-05-05T08:49:32.883Z,50.25
2023-05-05T08:50:32.846Z,48.59
2023-05-05T08:51:32.843Z,49.77
2023-05-05T08:52:32.848Z,48.44
2023-05-05T08:53:32.854Z,50.80
2023-05-05T08:54:32.858Z,49.18
2023-05-05T08:55:32.828Z,49.36
2023-05-05T08:56:32.805Z,50.08
2023-05-05T08:57:32.799Z,48.93
2023-05-05T08:58:32.803Z,50.68
2023-05-05T08:59:32.777Z,49.71
2023-05-05T09:00:32.793Z,50.02
2023-05-05T09:01:32.907Z,52.86
2023-05-05T09:02:32.893Z,58.72
2023-05-05T09:03:32.805Z,58.19
2023-05-05T09:04:32.757Z,56.40
2023-05-05T09:05:32.779Z,53.35
2023-05-05T09:06:32.811Z,51.90
2023-05-05T09:07:32.749Z,50.11
2023-05-05T09:08:32.749Z,50.07
2023-05-05T09:09:32.739Z,50.63
2023-05-05T09:10:32.727Z,48.50
2023-05-05T09:11:32.747Z,50.64
2023-05-05T09:12:32.742Z,50.49
2023-05-05T09:13:32.695Z,51.73
2023-05-05T09:14:32.693Z,52.29
2023-05-05T09:15:32.693Z,49.95
2023-05-05T09:16:32.750Z,50.05
2023-05-05T09:17:32.718Z,50.23
2023-05-05T09:18:32.665Z,50.46
2023-05-05T09:19:32.663Z,47.77
2023-05-05T09:20:32.665Z,48.55
2023-05-05T09:21:32.676Z,47.40
2023-05-05T09:22:32.645Z,49.33
2023-05-05T09:23:32.639Z,50.42
2023-05-05T09:24:32.621Z,49.43
2023-05-05T09:25:32.618Z,49.25
2023-05-05T09:26:32.652Z,48.17
2023-05-05T09:27:32.599Z,49.02
2023-05-05T09:28:32.596Z,50.21
2023-05-05T09:29:32.625Z,48.50
2023-05-05T09:30:32.597Z,49.76
2023-05-05T09:31:32.595Z,48.80
2023-05-05T09:32:32.620Z,50.00
2023-05-05T09:33:32.577Z,48.05
2023-05-05T09:34:32.604Z,49.23
2023-05-05T09:35:32.567Z,49.29
2023-05-05T09:36:32.676Z,53.95
2023-05-05T09:37:32.545Z,48.77
2023-05-05T09:38:32.539Z,48.47
2023-05-05T09:39:32.550Z,50.51
2023-05-05T09:40:32.525Z,49.81
2023-05-05T09:41:32.562Z,48.77
2023-05-05T09:42:32.534Z,47.59
2023-05-05T09:43:32.530Z,46.65
2023-05-05T09:44:32.477Z,49.69
2023-05-05T09:45:32.498Z,49.55
2023-05-05T09:46:32.505Z,52.53
2023-05-05T09:47:32.951Z,49.09
2023-05-05T09:48:32.539Z,48.82
2023-05-05T09:49:32.504Z,48.20
2023-05-05T09:50:32.555Z,47.94
2023-05-05T09:51:32.434Z,48.60
2023-05-05T09:52:32.448Z,49.62
2023-05-05T09:53:32.469Z,51.90
2023-05-05T09:54:32.421Z,51.48
2023-05-05T09:55:32.403Z,49.71
2023-05-05T09:56:33.424Z,48.94
2023-05-05T09:57:32.425Z,48.23
2023-05-05T09:58:32.573Z,50.22
2023-05-05T09:59:32.412Z,49.62
2023-05-05T10:00:32.445Z,52.98
2023-05-05T10:01:32.391Z,52.74
2023-05-05T10:02:32.430Z,51.26
2023-05-05T10:03:32.412Z,48.26
2023-05-05T10:04:32.362Z,50.01
2023-05-05T10:05:32.345Z,49.32
2023-05-05T10:06:32.327Z,48.18
2023-05-05T10:07:32.337Z,49.61
2023-05-05T10:08:32.395Z,49.37
2023-05-05T10:09:32.359Z,51.29
2023-05-05T10:10:32.330Z,50.74
2023-05-05T10:11:32.317Z,50.11
2023-05-05T10:12:32.362Z,50.01
2023-05-05T10:13:32.320Z,48.90
2023-05-05T10:14:32.297Z,49.48
2023-05-05T10:15:32.276Z,51.40
2023-05-05T10:16:32.331Z,48.96
2023-05-05T10:17:32.330Z,51.52
2023-05-05T10:18:32.323Z,51.72
2023-05-05T10:19:32.260Z,49.55
2023-05-05T10:20:32.246Z,49.86
2023-05-05T10:21:32.271Z,50.52
2023-05-05T10:22:32.308Z,51.00
2023-05-05T10:23:32.220Z,52.52
2023-05-05T10:24:32.221Z,51.32
2023-05-05T10:25:32.213Z,49.66
2023-05-05T10:26:32.224Z,48.74
2023-05-05T10:27:32.225Z,49.54
2023-05-05T10:28:32.181Z,49.76
2023-05-05T10:29:32.194Z,50.34
2023-05-05T10:30:32.201Z,48.77
2023-05-05T10:31:32.216Z,51.21
2023-05-05T10:32:50.959Z,50.95
2023-05-05T10:33:34.220Z,51.50
2023-05-05T10:34:32.203Z,50.82
2023-05-05T10:35:32.141Z,48.54
2023-05-05T10:36:32.167Z,50.79
2023-05-05T10:37:32.129Z,50.77
2023-05-05T10:38:32.257Z,49.32
2023-05-05T10:39:32.124Z,49.92
2023-05-05T10:40:32.130Z,50.41
2023-05-05T10:41:32.148Z,47.97
2023-05-05T10:42:32.197Z,47.65
2023-05-05T10:43:32.144Z,48.32
2023-05-05T10:44:32.095Z,51.40
2023-05-05T10:45:32.185Z,51.17
2023-05-05T10:46:32.127Z,49.44
2023-05-05T10:47:32.086Z,52.95
2023-05-05T10:48:32.146Z,51.99
2023-05-05T10:49:32.070Z,47.68
2023-05-05T10:50:32.122Z,49.58
2023-05-05T10:51:40.469Z,48.15
2023-05-05T10:52:34.044Z,49.29
2023-05-05T10:53:32.028Z,51.08
2023-05-05T10:54:32.305Z,51.13
2023-05-05T10:55:32.026Z,50.96
2023-05-05T10:56:32.046Z,50.87
2023-05-05T10:57:31.995Z,50.16
2023-05-05T10:58:31.996Z,50.94
2023-05-05T10:59:31.982Z,48.90
2023-05-05T11:00:31.969Z,52.74
2023-05-05T11:01:32.310Z,50.60
2023-05-05T11:02:32.018Z,49.97
2023-05-05T11:03:32.005Z,51.26
2023-05-05T11:04:31.962Z,52.86
2023-05-05T11:05:31.966Z,50.64
2023-05-05T11:06:31.929Z,50.64
2023-05-05T11:07:31.954Z,49.34
2023-05-05T11:08:31.927Z,51.36
2023-05-05T11:09:31.984Z,49.91
2023-05-05T11:10:32.003Z,47.38
2023-05-05T11:11:31.917Z,51.70
2023-05-05T11:12:31.969Z,49.30
2023-05-05T11:13:31.899Z,53.61
2023-05-05T11:14:31.920Z,50.87
2023-05-05T11:15:31.884Z,49.80
2023-05-05T11:16:31.928Z,50.48
2023-05-05T11:17:31.921Z,50.99
2023-05-05T11:18:31.853Z,52.71
2023-05-05T11:19:31.844Z,49.52
2023-05-05T11:20:31.851Z,48.98
2023-05-05T11:21:31.844Z,51.12
2023-05-05T11:22:31.856Z,51.49
2023-05-05T11:23:31.861Z,51.02
2023-05-05T11:24:31.826Z,52.75
2023-05-05T11:25:31.814Z,50.71
2023-05-05T11:26:31.817Z,50.63
2023-05-05T11:27:31.834Z,52.62
2023-05-05T11:28:31.823Z,53.86
2023-05-05T11:29:31.783Z,54.30
2023-05-05T11:30:31.793Z,51.49
2023-05-05T11:31:31.863Z,55.09
2023-05-05T11:32:31.810Z,52.85
2023-05-05T11:33:31.781Z,53.14
2023-05-05T11:34:31.757Z,51.51
2023-05-05T11:35:31.784Z,51.70
2023-05-05T11:36:31.773Z,53.27
2023-05-05T11:37:31.736Z,52.50
2023-05-05T11:38:31.758Z,52.03
2023-05-05T11:39:31.721Z,52.75
2023-05-05T11:40:31.726Z,50.98
2023-05-05T11:41:31.743Z,50.08
2023-05-05T11:42:31.761Z,49.10
2023-05-05T11:43:31.676Z,49.13
2023-05-05T11:44:31.676Z,50.59
2023-05-05T11:45:31.667Z,51.19
2023-05-05T11:46:31.733Z,52.84
2023-05-05T11:47:31.676Z,54.57
2023-05-05T11:48:31.658Z,52.67
2023-05-05T11:49:31.691Z,53.60
2023-05-05T11:50:31.647Z,50.72
2023-05-05T11:51:31.665Z,50.02
2023-05-05T11:52:31.634Z,49.72
2023-05-05T11:53:31.615Z,48.29
2023-05-05T11:54:31.621Z,48.41
2023-05-05T11:55:31.618Z,48.02
2023-05-05T11:56:31.623Z,46.21
2023-05-05T11:57:31.620Z,45.96
2023-05-05T11:58:31.636Z,48.84
2023-05-05T11:59:31.579Z,45.33
2023-05-05T12:00:31.597Z,46.86
2023-05-05T12:01:31.600Z,45.99
2023-05-05T12:02:31.693Z,48.02
2023-05-05T12:03:31.709Z,47.82
2023-05-05T12:04:31.622Z,48.20
2023-05-05T12:05:32.387Z,50.00
2023-05-05T12:06:31.563Z,48.89
2023-05-05T12:07:31.562Z,48.87
2023-05-05T12:08:31.530Z,49.62
2023-05-05T12:09:31.535Z,48.49
2023-05-05T12:10:31.506Z,50.00
2023-05-05T12:11:31.521Z,47.25
2023-05-05T12:12:31.570Z,50.64
2023-05-05T12:13:31.516Z,47.65
2023-05-05T12:14:31.558Z,49.32
2023-05-05T12:15:31.551Z,51.12
2023-05-05T12:16:32.691Z,47.98
2023-05-05T12:17:31.502Z,50.24
2023-05-05T12:18:31.464Z,48.89
2023-05-05T12:19:31.487Z,50.00
2023-05-05T12:20:31.487Z,49.31
2023-05-05T12:21:31.439Z,52.68
2023-05-05T12:22:31.453Z,48.90
2023-05-05T12:23:31.426Z,49.96
2023-05-05T12:24:31.537Z,48.13
2023-05-05T12:25:31.439Z,48.41
2023-05-05T12:26:31.404Z,49.18
2023-05-05T12:27:31.547Z,48.20
2023-05-05T12:28:31.465Z,48.51
2023-05-05T12:29:31.400Z,51.28
2023-05-05T12:30:31.425Z,48.67
2023-05-05T12:31:31.438Z,48.22
2023-05-05T12:32:31.413Z,50.17
2023-05-05T12:33:31.362Z,49.24
2023-05-05T12:34:31.371Z,49.57
2023-05-05T12:35:31.362Z,48.37
2023-05-05T12:36:31.361Z,47.77
2023-05-05T12:37:31.365Z,51.39
2023-05-05T12:38:31.334Z,49.11
2023-05-05T12:39:31.369Z,49.96
2023-05-05T12:40:31.334Z,51.69
2023-05-05T12:41:31.321Z,49.95
2023-05-05T12:42:31.293Z,47.67
2023-05-05T12:43:31.389Z,45.76
2023-05-05T12:44:31.299Z,48.12
2023-05-05T12:45:31.313Z,48.29
2023-05-05T12:46:32.350Z,49.09
2023-05-05T12:47:31.340Z,49.19
2023-05-05T12:48:31.275Z,48.77
2023-05-05T12:49:31.329Z,46.66
2023-05-05T12:50:31.278Z,49.49
2023-05-05T12:51:31.251Z,48.18
2023-05-05T12:52:31.258Z,47.14